sensor_id;sensor_type;location;lat;lon;timestamp;temperature;humidity
2465;DHT22;1244;54.326;10.074;2023-03-21T00:01:01;7.20;99.90
2465;DHT22;1244;54.326;10.074;2023-03-21T00:03:33;7.20;99.90
2465;DHT22;1244;54.326;10.074;2023-03-21T00:06:07;7.20;99.90
2465;DHT22;1244;54.326;10.074;2023-03-21T00:08:32;7.20;99.90
2465;DHT22;1244;54.326;10.074;2023-03-21T00:11:00;7.30;99.90
2465;DHT22;1244;54.326;10.074;2023-03-21T00:13:27;7.30;99.90
2465;DHT22;1244;54.326;10.074;2023-03-21T00:16:06;7.20;99.90
2465;DHT22;1244;54.326;10.074;2023-03-21T00:18:32;7.20;99.90
2465;DHT22;1244;54.326;10.074;2023-03-21T00:21:02;7.30;99.90
2465;DHT22;1244;54.326;10.074;2023-03-21T00:23:32;7.20;99.90
2465;DHT22;1244;54.326;10.074;2023-03-21T00:25:58;7.20;99.90
2465;DHT22;1244;54.326;10.074;2023-03-21T00:28:24;7.20;99.90
2465;DHT22;1244;54.326;10.074;2023-03-21T00:30:50;7.10;99.90
2465;DHT22;1244;54.326;10.074;2023-03-21T00:33:16;7.20;99.90
2465;DHT22;1244;54.326;10.074;2023-03-21T00:35:45;7.20;99.90
2465;DHT22;1244;54.326;10.074;2023-03-21T00:38:13;7.20;99.90
2465;DHT22;1244;54.326;10.074;2023-03-21T00:40:38;7.30;99.90
2465;DHT22;1244;54.326;10.074;2023-03-21T00:43:04;7.10;99.90
2465;DHT22;1244;54.326;10.074;2023-03-21T00:45:30;7.20;99.90
2465;DHT22;1244;54.326;10.074;2023-03-21T00:47:56;7.10;99.90
2465;DHT22;1244;54.326;10.074;2023-03-21T00:50:22;7.20;99.90
2465;DHT22;1244;54.326;10.074;2023-03-21T00:52:47;7.20;99.90
2465;DHT22;1244;54.326;10.074;2023-03-21T00:55:14;7.10;99.90
2465;DHT22;1244;54.326;10.074;2023-03-21T00:57:40;7.10;99.90
2465;DHT22;1244;54.326;10.074;2023-03-21T01:00:09;7.20;99.90
2465;DHT22;1244;54.326;10.074;2023-03-21T01:02:37;7.20;99.90
2465;DHT22;1244;54.326;10.074;2023-03-21T01:05:03;7.10;99.90
2465;DHT22;1244;54.326;10.074;2023-03-21T01:07:29;7.10;99.90
2465;DHT22;1244;54.326;10.074;2023-03-21T01:09:55;7.10;99.90
2465;DHT22;1244;54.326;10.074;2023-03-21T01:12:21;7.20;99.90
2465;DHT22;1244;54.326;10.074;2023-03-21T01:14:46;7.20;99.90
2465;DHT22;1244;54.326;10.074;2023-03-21T01:17:12;7.30;99.90
2465;DHT22;1244;54.326;10.074;2023-03-21T01:19:37;7.10;99.90
2465;DHT22;1244;54.326;10.074;2023-03-21T01:22:03;7.20;99.90
2465;DHT22;1244;54.326;10.074;2023-03-21T01:24:28;7.20;99.90
2465;DHT22;1244;54.326;10.074;2023-03-21T01:26:54;7.20;99.90
2465;DHT22;1244;54.326;10.074;2023-03-21T01:29:20;7.20;99.90
2465;DHT22;1244;54.326;10.074;2023-03-21T01:31:45;7.20;99.90
2465;DHT22;1244;54.326;10.074;2023-03-21T01:34:11;7.20;99.90
2465;DHT22;1244;54.326;10.074;2023-03-21T01:36:36;7.20;99.90
2465;DHT22;1244;54.326;10.074;2023-03-21T01:39:03;7.20;99.90
2465;DHT22;1244;54.326;10.074;2023-03-21T01:41:36;7.20;99.90
2465;DHT22;1244;54.326;10.074;2023-03-21T01:44:01;7.20;99.90
2465;DHT22;1244;54.326;10.074;2023-03-21T01:46:40;7.20;99.90
2465;DHT22;1244;54.326;10.074;2023-03-21T01:49:24;7.20;99.90
2465;DHT22;1244;54.326;10.074;2023-03-21T01:51:55;7.20;99.90
2465;DHT22;1244;54.326;10.074;2023-03-21T01:54:31;7.20;99.90
2465;DHT22;1244;54.326;10.074;2023-03-21T01:57:00;7.20;99.90
2465;DHT22;1244;54.326;10.074;2023-03-21T01:59:41;7.10;99.90
2465;DHT22;1244;54.326;10.074;2023-03-21T02:02:18;7.20;99.90
2465;DHT22;1244;54.326;10.074;2023-03-21T02:04:45;7.20;99.90
2465;DHT22;1244;54.326;10.074;2023-03-21T02:07:17;7.20;99.90
2465;DHT22;1244;54.326;10.074;2023-03-21T02:09:51;7.20;99.90
2465;DHT22;1244;54.326;10.074;2023-03-21T02:12:17;7.20;99.90
2465;DHT22;1244;54.326;10.074;2023-03-21T02:14:44;7.20;99.90
2465;DHT22;1244;54.326;10.074;2023-03-21T02:17:28;7.10;99.90
2465;DHT22;1244;54.326;10.074;2023-03-21T02:20:05;7.20;99.90
2465;DHT22;1244;54.326;10.074;2023-03-21T02:25:46;7.20;99.90
2465;DHT22;1244;54.326;10.074;2023-03-21T02:33:58;7.10;99.90
2465;DHT22;1244;54.326;10.074;2023-03-21T02:40:10;7.20;99.90
2465;DHT22;1244;54.326;10.074;2023-03-21T02:45:48;7.20;99.90
2465;DHT22;1244;54.326;10.074;2023-03-21T02:48:30;7.20;99.90
2465;DHT22;1244;54.326;10.074;2023-03-21T02:50:58;7.20;99.90
2465;DHT22;1244;54.326;10.074;2023-03-21T02:53:30;7.10;99.90
2465;DHT22;1244;54.326;10.074;2023-03-21T02:55:59;7.20;99.90
2465;DHT22;1244;54.326;10.074;2023-03-21T02:58:27;7.10;99.90
2465;DHT22;1244;54.326;10.074;2023-03-21T03:00:53;7.10;99.90
2465;DHT22;1244;54.326;10.074;2023-03-21T03:03:21;7.20;99.90
2465;DHT22;1244;54.326;10.074;2023-03-21T03:05:49;7.20;99.90
2465;DHT22;1244;54.326;10.074;2023-03-21T03:11:27;7.20;99.90
2465;DHT22;1244;54.326;10.074;2023-03-21T03:16:47;7.10;99.90
2465;DHT22;1244;54.326;10.074;2023-03-21T03:19:30;7.20;99.90
2465;DHT22;1244;54.326;10.074;2023-03-21T03:22:00;7.10;99.90
2465;DHT22;1244;54.326;10.074;2023-03-21T03:24:30;7.10;99.90
2465;DHT22;1244;54.326;10.074;2023-03-21T03:27:05;7.20;99.90
2465;DHT22;1244;54.326;10.074;2023-03-21T03:29:34;7.10;99.90
2465;DHT22;1244;54.326;10.074;2023-03-21T03:34:33;7.20;99.90
2465;DHT22;1244;54.326;10.074;2023-03-21T03:37:06;7.10;99.90
2465;DHT22;1244;54.326;10.074;2023-03-21T03:42:24;7.10;99.90
2465;DHT22;1244;54.326;10.074;2023-03-21T03:44:53;7.10;99.90
2465;DHT22;1244;54.326;10.074;2023-03-21T03:50:00;7.10;99.90
2465;DHT22;1244;54.326;10.074;2023-03-21T03:52:34;7.10;99.90
2465;DHT22;1244;54.326;10.074;2023-03-21T03:55:01;7.10;99.90
2465;DHT22;1244;54.326;10.074;2023-03-21T03:57:28;7.10;99.90
2465;DHT22;1244;54.326;10.074;2023-03-21T03:59:54;7.10;99.90
2465;DHT22;1244;54.326;10.074;2023-03-21T04:02:19;7.10;99.90
2465;DHT22;1244;54.326;10.074;2023-03-21T04:04:45;7.20;99.90
2465;DHT22;1244;54.326;10.074;2023-03-21T04:07:12;7.10;99.90
2465;DHT22;1244;54.326;10.074;2023-03-21T04:09:37;7.20;99.90
2465;DHT22;1244;54.326;10.074;2023-03-21T04:12:03;7.10;99.90
2465;DHT22;1244;54.326;10.074;2023-03-21T04:14:29;7.20;99.90
2465;DHT22;1244;54.326;10.074;2023-03-21T04:16:54;7.20;99.90
2465;DHT22;1244;54.326;10.074;2023-03-21T04:19:20;7.20;99.90
2465;DHT22;1244;54.326;10.074;2023-03-21T04:21:45;7.10;99.90
2465;DHT22;1244;54.326;10.074;2023-03-21T04:24:12;7.20;99.90
2465;DHT22;1244;54.326;10.074;2023-03-21T04:26:38;7.10;99.90
2465;DHT22;1244;54.326;10.074;2023-03-21T04:29:04;7.20;99.90
2465;DHT22;1244;54.326;10.074;2023-03-21T04:31:31;7.20;99.90
2465;DHT22;1244;54.326;10.074;2023-03-21T04:33:59;7.10;99.90
2465;DHT22;1244;54.326;10.074;2023-03-21T04:36:25;7.10;99.90
2465;DHT22;1244;54.326;10.074;2023-03-21T04:38:56;7.20;99.90
2465;DHT22;1244;54.326;10.074;2023-03-21T04:41:28;7.20;99.90
2465;DHT22;1244;54.326;10.074;2023-03-21T04:43:55;7.20;99.90
2465;DHT22;1244;54.326;10.074;2023-03-21T04:46:21;7.20;99.90
2465;DHT22;1244;54.326;10.074;2023-03-21T04:48:47;7.20;99.90
2465;DHT22;1244;54.326;10.074;2023-03-21T04:51:13;7.30;99.90
2465;DHT22;1244;54.326;10.074;2023-03-21T04:53:39;7.20;99.90
2465;DHT22;1244;54.326;10.074;2023-03-21T04:56:08;7.20;99.90
2465;DHT22;1244;54.326;10.074;2023-03-21T04:58:33;7.30;99.90
2465;DHT22;1244;54.326;10.074;2023-03-21T05:00:59;7.20;99.90
2465;DHT22;1244;54.326;10.074;2023-03-21T05:03:26;7.20;99.90
2465;DHT22;1244;54.326;10.074;2023-03-21T05:05:59;7.20;99.90
2465;DHT22;1244;54.326;10.074;2023-03-21T05:08:24;7.20;99.90
2465;DHT22;1244;54.326;10.074;2023-03-21T05:10:51;7.20;99.90
2465;DHT22;1244;54.326;10.074;2023-03-21T05:13:16;7.20;99.90
2465;DHT22;1244;54.326;10.074;2023-03-21T05:15:42;7.30;99.90
2465;DHT22;1244;54.326;10.074;2023-03-21T05:18:08;7.30;99.90
2465;DHT22;1244;54.326;10.074;2023-03-21T05:20:39;7.20;99.90
2465;DHT22;1244;54.326;10.074;2023-03-21T05:23:11;7.20;99.90
2465;DHT22;1244;54.326;10.074;2023-03-21T05:25:38;7.20;99.90
2465;DHT22;1244;54.326;10.074;2023-03-21T05:28:05;7.30;99.90
2465;DHT22;1244;54.326;10.074;2023-03-21T05:30:31;7.30;99.90
2465;DHT22;1244;54.326;10.074;2023-03-21T05:32:57;7.30;99.90
2465;DHT22;1244;54.326;10.074;2023-03-21T05:35:22;7.20;99.90
2465;DHT22;1244;54.326;10.074;2023-03-21T05:37:48;7.30;99.90
2465;DHT22;1244;54.326;10.074;2023-03-21T05:40:14;7.30;99.90
2465;DHT22;1244;54.326;10.074;2023-03-21T05:42:40;7.30;99.90
2465;DHT22;1244;54.326;10.074;2023-03-21T05:45:05;7.30;99.90
2465;DHT22;1244;54.326;10.074;2023-03-21T05:47:31;7.30;99.90
2465;DHT22;1244;54.326;10.074;2023-03-21T05:49:57;7.30;99.90
2465;DHT22;1244;54.326;10.074;2023-03-21T05:52:23;7.30;99.90
2465;DHT22;1244;54.326;10.074;2023-03-21T05:54:48;7.30;99.90
2465;DHT22;1244;54.326;10.074;2023-03-21T05:57:14;7.30;99.90
2465;DHT22;1244;54.326;10.074;2023-03-21T05:59:40;7.30;99.90
2465;DHT22;1244;54.326;10.074;2023-03-21T06:02:05;7.30;99.90
2465;DHT22;1244;54.326;10.074;2023-03-21T06:04:31;7.30;99.90
2465;DHT22;1244;54.326;10.074;2023-03-21T06:06:56;7.40;99.90
2465;DHT22;1244;54.326;10.074;2023-03-21T06:09:22;7.40;99.90
2465;DHT22;1244;54.326;10.074;2023-03-21T06:11:50;7.40;99.90
2465;DHT22;1244;54.326;10.074;2023-03-21T06:14:17;7.40;99.90
2465;DHT22;1244;54.326;10.074;2023-03-21T06:16:43;7.40;99.90
2465;DHT22;1244;54.326;10.074;2023-03-21T06:19:08;7.50;99.90
2465;DHT22;1244;54.326;10.074;2023-03-21T06:21:34;7.40;99.90
2465;DHT22;1244;54.326;10.074;2023-03-21T06:23:59;7.40;99.90
2465;DHT22;1244;54.326;10.074;2023-03-21T06:26:25;7.50;99.90
2465;DHT22;1244;54.326;10.074;2023-03-21T06:28:51;7.50;99.90
2465;DHT22;1244;54.326;10.074;2023-03-21T06:31:17;7.50;99.90
2465;DHT22;1244;54.326;10.074;2023-03-21T06:33:43;7.50;99.90
2465;DHT22;1244;54.326;10.074;2023-03-21T06:36:09;7.50;99.90
2465;DHT22;1244;54.326;10.074;2023-03-21T06:38:34;7.50;99.90
2465;DHT22;1244;54.326;10.074;2023-03-21T06:41:04;7.50;99.90
2465;DHT22;1244;54.326;10.074;2023-03-21T06:43:30;7.50;99.90
2465;DHT22;1244;54.326;10.074;2023-03-21T06:45:56;7.50;99.90
2465;DHT22;1244;54.326;10.074;2023-03-21T06:48:22;7.60;99.90
2465;DHT22;1244;54.326;10.074;2023-03-21T06:50:49;7.60;99.90
2465;DHT22;1244;54.326;10.074;2023-03-21T06:53:15;7.70;99.90
2465;DHT22;1244;54.326;10.074;2023-03-21T06:55:41;7.70;99.90
2465;DHT22;1244;54.326;10.074;2023-03-21T06:58:06;7.70;99.90
2465;DHT22;1244;54.326;10.074;2023-03-21T07:00:32;7.70;99.90
2465;DHT22;1244;54.326;10.074;2023-03-21T07:02:58;7.70;99.90
2465;DHT22;1244;54.326;10.074;2023-03-21T07:05:26;7.70;99.90
2465;DHT22;1244;54.326;10.074;2023-03-21T07:07:51;7.70;99.90
2465;DHT22;1244;54.326;10.074;2023-03-21T07:10:17;7.80;99.90
2465;DHT22;1244;54.326;10.074;2023-03-21T07:12:43;7.80;99.90
2465;DHT22;1244;54.326;10.074;2023-03-21T07:15:08;7.90;99.90
2465;DHT22;1244;54.326;10.074;2023-03-21T07:17:34;7.90;99.90
2465;DHT22;1244;54.326;10.074;2023-03-21T07:20:00;7.90;99.90
2465;DHT22;1244;54.326;10.074;2023-03-21T07:22:25;7.90;99.90
2465;DHT22;1244;54.326;10.074;2023-03-21T07:24:51;7.90;99.90
2465;DHT22;1244;54.326;10.074;2023-03-21T07:27:17;8.00;99.90
2465;DHT22;1244;54.326;10.074;2023-03-21T07:29:43;8.00;99.90
2465;DHT22;1244;54.326;10.074;2023-03-21T07:32:09;8.10;99.90
2465;DHT22;1244;54.326;10.074;2023-03-21T07:34:36;8.10;99.90
2465;DHT22;1244;54.326;10.074;2023-03-21T07:37:03;8.10;99.90
2465;DHT22;1244;54.326;10.074;2023-03-21T07:39:28;8.10;99.90
2465;DHT22;1244;54.326;10.074;2023-03-21T07:41:55;8.10;99.90
2465;DHT22;1244;54.326;10.074;2023-03-21T07:44:21;8.10;99.90
2465;DHT22;1244;54.326;10.074;2023-03-21T07:46:47;8.20;99.90
2465;DHT22;1244;54.326;10.074;2023-03-21T07:49:13;8.20;99.90
2465;DHT22;1244;54.326;10.074;2023-03-21T07:51:38;8.20;99.90
2465;DHT22;1244;54.326;10.074;2023-03-21T07:54:04;8.20;99.90
2465;DHT22;1244;54.326;10.074;2023-03-21T07:56:30;8.20;99.90
2465;DHT22;1244;54.326;10.074;2023-03-21T07:58:55;8.20;99.90
2465;DHT22;1244;54.326;10.074;2023-03-21T08:01:21;8.20;99.90
2465;DHT22;1244;54.326;10.074;2023-03-21T08:03:46;8.30;99.90
2465;DHT22;1244;54.326;10.074;2023-03-21T08:06:12;8.30;99.90
2465;DHT22;1244;54.326;10.074;2023-03-21T08:08:39;8.20;99.90
2465;DHT22;1244;54.326;10.074;2023-03-21T08:11:05;8.20;99.90
2465;DHT22;1244;54.326;10.074;2023-03-21T08:13:31;8.20;99.90
2465;DHT22;1244;54.326;10.074;2023-03-21T08:15:56;8.20;99.90
2465;DHT22;1244;54.326;10.074;2023-03-21T08:18:22;8.20;99.90
2465;DHT22;1244;54.326;10.074;2023-03-21T08:20:52;8.20;99.90
2465;DHT22;1244;54.326;10.074;2023-03-21T08:23:19;8.30;99.90
2465;DHT22;1244;54.326;10.074;2023-03-21T08:25:45;8.20;99.90
2465;DHT22;1244;54.326;10.074;2023-03-21T08:28:11;8.30;99.90
2465;DHT22;1244;54.326;10.074;2023-03-21T08:30:37;8.30;99.90
2465;DHT22;1244;54.326;10.074;2023-03-21T08:33:03;8.30;99.90
2465;DHT22;1244;54.326;10.074;2023-03-21T08:35:29;8.30;99.90
2465;DHT22;1244;54.326;10.074;2023-03-21T08:37:55;8.30;99.90
2465;DHT22;1244;54.326;10.074;2023-03-21T08:40:21;8.30;99.90
2465;DHT22;1244;54.326;10.074;2023-03-21T08:42:47;8.30;99.90
2465;DHT22;1244;54.326;10.074;2023-03-21T08:45:14;8.30;99.90
2465;DHT22;1244;54.326;10.074;2023-03-21T08:47:40;8.30;99.90
2465;DHT22;1244;54.326;10.074;2023-03-21T08:50:06;8.30;99.90
2465;DHT22;1244;54.326;10.074;2023-03-21T08:52:34;8.30;99.90
2465;DHT22;1244;54.326;10.074;2023-03-21T08:55:00;8.30;99.90
2465;DHT22;1244;54.326;10.074;2023-03-21T08:57:26;8.30;99.90
2465;DHT22;1244;54.326;10.074;2023-03-21T08:59:52;8.30;99.90
2465;DHT22;1244;54.326;10.074;2023-03-21T09:02:19;8.30;99.90
2465;DHT22;1244;54.326;10.074;2023-03-21T09:04:44;8.40;99.90
2465;DHT22;1244;54.326;10.074;2023-03-21T09:07:10;8.30;99.90
2465;DHT22;1244;54.326;10.074;2023-03-21T09:09:38;8.40;99.90
2465;DHT22;1244;54.326;10.074;2023-03-21T09:12:04;8.40;99.90
2465;DHT22;1244;54.326;10.074;2023-03-21T09:14:30;8.40;99.90
2465;DHT22;1244;54.326;10.074;2023-03-21T09:16:55;8.40;99.90
2465;DHT22;1244;54.326;10.074;2023-03-21T09:19:21;8.40;99.90
2465;DHT22;1244;54.326;10.074;2023-03-21T09:21:46;8.50;99.90
2465;DHT22;1244;54.326;10.074;2023-03-21T09:24:12;8.50;99.90
2465;DHT22;1244;54.326;10.074;2023-03-21T09:26:39;8.60;99.90
2465;DHT22;1244;54.326;10.074;2023-03-21T09:29:05;8.50;99.90
2465;DHT22;1244;54.326;10.074;2023-03-21T09:31:32;8.50;99.90
2465;DHT22;1244;54.326;10.074;2023-03-21T09:33:58;8.50;99.90
2465;DHT22;1244;54.326;10.074;2023-03-21T09:36:24;8.60;99.90
2465;DHT22;1244;54.326;10.074;2023-03-21T09:38:52;8.60;99.90
2465;DHT22;1244;54.326;10.074;2023-03-21T09:41:45;8.60;99.90
2465;DHT22;1244;54.326;10.074;2023-03-21T09:44:50;8.60;99.90
2465;DHT22;1244;54.326;10.074;2023-03-21T09:47:24;8.70;99.90
2465;DHT22;1244;54.326;10.074;2023-03-21T09:50:17;8.60;99.90
2465;DHT22;1244;54.326;10.074;2023-03-21T09:53:10;8.60;99.90
2465;DHT22;1244;54.326;10.074;2023-03-21T09:55:39;8.70;99.90
2465;DHT22;1244;54.326;10.074;2023-03-21T10:01:05;8.70;99.90
2465;DHT22;1244;54.326;10.074;2023-03-21T10:03:36;8.70;99.90
2465;DHT22;1244;54.326;10.074;2023-03-21T10:06:11;8.80;99.90
2465;DHT22;1244;54.326;10.074;2023-03-21T10:08:39;8.80;99.90
2465;DHT22;1244;54.326;10.074;2023-03-21T10:11:12;8.80;99.90
2465;DHT22;1244;54.326;10.074;2023-03-21T10:14:00;8.80;99.90
2465;DHT22;1244;54.326;10.074;2023-03-21T10:16:34;8.80;99.90
2465;DHT22;1244;54.326;10.074;2023-03-21T10:19:05;8.80;99.90
2465;DHT22;1244;54.326;10.074;2023-03-21T10:21:35;8.80;99.90
2465;DHT22;1244;54.326;10.074;2023-03-21T10:24:01;8.80;99.90
2465;DHT22;1244;54.326;10.074;2023-03-21T10:26:28;8.90;99.90
2465;DHT22;1244;54.326;10.074;2023-03-21T10:28:57;8.90;99.90
2465;DHT22;1244;54.326;10.074;2023-03-21T10:31:24;8.90;99.90
2465;DHT22;1244;54.326;10.074;2023-03-21T10:33:53;9.00;99.90
2465;DHT22;1244;54.326;10.074;2023-03-21T10:36:25;9.00;99.90
2465;DHT22;1244;54.326;10.074;2023-03-21T10:39:04;9.00;99.90
2465;DHT22;1244;54.326;10.074;2023-03-21T10:41:31;9.10;99.90
2465;DHT22;1244;54.326;10.074;2023-03-21T10:46:33;9.00;99.90
2465;DHT22;1244;54.326;10.074;2023-03-21T10:49:00;9.00;99.90
2465;DHT22;1244;54.326;10.074;2023-03-21T10:51:29;9.10;99.90
2465;DHT22;1244;54.326;10.074;2023-03-21T10:54:13;9.10;99.90
2465;DHT22;1244;54.326;10.074;2023-03-21T10:56:45;9.00;99.90
2465;DHT22;1244;54.326;10.074;2023-03-21T10:59:17;9.10;99.90
2465;DHT22;1244;54.326;10.074;2023-03-21T11:01:48;9.00;99.90
2465;DHT22;1244;54.326;10.074;2023-03-21T11:04:26;9.10;99.90
2465;DHT22;1244;54.326;10.074;2023-03-21T11:06:55;9.20;99.90
2465;DHT22;1244;54.326;10.074;2023-03-21T11:09:41;9.10;99.90
2465;DHT22;1244;54.326;10.074;2023-03-21T11:12:13;9.00;99.90
2465;DHT22;1244;54.326;10.074;2023-03-21T11:17:20;9.10;99.90
2465;DHT22;1244;54.326;10.074;2023-03-21T11:19:48;9.10;99.90
2465;DHT22;1244;54.326;10.074;2023-03-21T11:22:14;9.10;99.90
2465;DHT22;1244;54.326;10.074;2023-03-21T11:24:42;9.10;99.90
2465;DHT22;1244;54.326;10.074;2023-03-21T11:27:12;9.10;99.90
2465;DHT22;1244;54.326;10.074;2023-03-21T11:29:39;9.00;99.90
2465;DHT22;1244;54.326;10.074;2023-03-21T11:32:24;9.10;99.90
2465;DHT22;1244;54.326;10.074;2023-03-21T11:34:59;9.20;99.90
2465;DHT22;1244;54.326;10.074;2023-03-21T11:42:44;9.30;99.90
2465;DHT22;1244;54.326;10.074;2023-03-21T11:47:39;9.40;99.90
2465;DHT22;1244;54.326;10.074;2023-03-21T11:52:58;9.40;99.90
2465;DHT22;1244;54.326;10.074;2023-03-21T12:01:39;9.50;99.90
2465;DHT22;1244;54.326;10.074;2023-03-21T12:10:47;9.60;99.90
2465;DHT22;1244;54.326;10.074;2023-03-21T12:13:40;9.60;99.90
2465;DHT22;1244;54.326;10.074;2023-03-21T12:16:55;9.50;99.90
2465;DHT22;1244;54.326;10.074;2023-03-21T12:24:54;9.60;99.90
2465;DHT22;1244;54.326;10.074;2023-03-21T12:35:57;9.60;99.90
2465;DHT22;1244;54.326;10.074;2023-03-21T12:38:35;9.80;99.90
2465;DHT22;1244;54.326;10.074;2023-03-21T12:41:19;9.80;99.90
2465;DHT22;1244;54.326;10.074;2023-03-21T12:43:54;9.80;99.90
2465;DHT22;1244;54.326;10.074;2023-03-21T12:47:00;9.90;99.90
2465;DHT22;1244;54.326;10.074;2023-03-21T12:49:30;9.90;99.90
2465;DHT22;1244;54.326;10.074;2023-03-21T12:52:14;9.90;99.90
2465;DHT22;1244;54.326;10.074;2023-03-21T12:54:57;9.70;99.90
2465;DHT22;1244;54.326;10.074;2023-03-21T13:03:17;9.70;99.90
2465;DHT22;1244;54.326;10.074;2023-03-21T13:05:59;9.70;99.90
2465;DHT22;1244;54.326;10.074;2023-03-21T13:08:36;9.70;99.90
2465;DHT22;1244;54.326;10.074;2023-03-21T13:11:05;9.60;99.90
2465;DHT22;1244;54.326;10.074;2023-03-21T13:13:46;9.70;99.90
2465;DHT22;1244;54.326;10.074;2023-03-21T13:16:27;9.60;99.90
2465;DHT22;1244;54.326;10.074;2023-03-21T13:24:40;9.60;99.90
2465;DHT22;1244;54.326;10.074;2023-03-21T13:29:49;9.70;99.90
2465;DHT22;1244;54.326;10.074;2023-03-21T13:32:31;9.60;99.90
2465;DHT22;1244;54.326;10.074;2023-03-21T13:37:51;9.60;99.90
2465;DHT22;1244;54.326;10.074;2023-03-21T13:42:52;9.70;99.90
2465;DHT22;1244;54.326;10.074;2023-03-21T13:45:30;9.70;99.90
2465;DHT22;1244;54.326;10.074;2023-03-21T13:48:03;9.70;99.90
2465;DHT22;1244;54.326;10.074;2023-03-21T13:50:35;9.60;99.90
2465;DHT22;1244;54.326;10.074;2023-03-21T13:55:28;9.70;99.90
2465;DHT22;1244;54.326;10.074;2023-03-21T13:57:53;9.70;99.90
2465;DHT22;1244;54.326;10.074;2023-03-21T14:00:28;9.70;99.90
2465;DHT22;1244;54.326;10.074;2023-03-21T14:03:07;9.80;99.90
2465;DHT22;1244;54.326;10.074;2023-03-21T14:05:36;9.80;99.90
2465;DHT22;1244;54.326;10.074;2023-03-21T14:08:06;9.80;99.90
2465;DHT22;1244;54.326;10.074;2023-03-21T14:10:38;9.90;99.90
2465;DHT22;1244;54.326;10.074;2023-03-21T14:13:08;9.90;99.90
2465;DHT22;1244;54.326;10.074;2023-03-21T14:18:15;9.80;99.90
2465;DHT22;1244;54.326;10.074;2023-03-21T14:20:41;9.80;99.90
2465;DHT22;1244;54.326;10.074;2023-03-21T14:23:13;9.80;99.90
2465;DHT22;1244;54.326;10.074;2023-03-21T14:25:39;9.70;99.90
2465;DHT22;1244;54.326;10.074;2023-03-21T14:28:13;9.80;99.90
2465;DHT22;1244;54.326;10.074;2023-03-21T14:30:41;9.80;99.90
2465;DHT22;1244;54.326;10.074;2023-03-21T14:33:15;9.80;99.90
2465;DHT22;1244;54.326;10.074;2023-03-21T14:35:45;9.90;99.90
2465;DHT22;1244;54.326;10.074;2023-03-21T14:38:38;9.80;99.90
2465;DHT22;1244;54.326;10.074;2023-03-21T14:41:05;9.80;99.90
2465;DHT22;1244;54.326;10.074;2023-03-21T14:43:43;9.90;99.90
2465;DHT22;1244;54.326;10.074;2023-03-21T14:46:12;9.90;99.90
2465;DHT22;1244;54.326;10.074;2023-03-21T14:48:37;10.10;99.90
2465;DHT22;1244;54.326;10.074;2023-03-21T14:51:09;9.90;99.90
2465;DHT22;1244;54.326;10.074;2023-03-21T14:53:38;10.00;99.90
2465;DHT22;1244;54.326;10.074;2023-03-21T14:56:11;9.80;99.90
2465;DHT22;1244;54.326;10.074;2023-03-21T14:58:41;9.80;99.90
2465;DHT22;1244;54.326;10.074;2023-03-21T15:01:14;9.90;99.90
2465;DHT22;1244;54.326;10.074;2023-03-21T15:03:43;10.00;99.90
2465;DHT22;1244;54.326;10.074;2023-03-21T15:06:12;10.00;99.90
2465;DHT22;1244;54.326;10.074;2023-03-21T15:08:39;9.90;99.90
2465;DHT22;1244;54.326;10.074;2023-03-21T15:11:10;9.90;99.90
2465;DHT22;1244;54.326;10.074;2023-03-21T15:13:42;9.90;99.90
2465;DHT22;1244;54.326;10.074;2023-03-21T15:16:11;9.90;99.90
2465;DHT22;1244;54.326;10.074;2023-03-21T15:18:39;9.80;99.90
2465;DHT22;1244;54.326;10.074;2023-03-21T15:21:09;9.90;99.90
2465;DHT22;1244;54.326;10.074;2023-03-21T15:23:40;9.80;99.90
2465;DHT22;1244;54.326;10.074;2023-03-21T15:26:06;9.80;99.90
2465;DHT22;1244;54.326;10.074;2023-03-21T15:28:33;9.90;99.90
2465;DHT22;1244;54.326;10.074;2023-03-21T15:30:59;9.90;99.90
2465;DHT22;1244;54.326;10.074;2023-03-21T15:33:25;9.80;99.90
2465;DHT22;1244;54.326;10.074;2023-03-21T15:35:56;9.70;99.90
2465;DHT22;1244;54.326;10.074;2023-03-21T15:38:31;9.80;99.90
2465;DHT22;1244;54.326;10.074;2023-03-21T15:44:00;9.80;99.90
2465;DHT22;1244;54.326;10.074;2023-03-21T15:46:46;9.80;99.90
2465;DHT22;1244;54.326;10.074;2023-03-21T15:51:44;9.70;99.90
2465;DHT22;1244;54.326;10.074;2023-03-21T15:54:16;9.70;99.90
2465;DHT22;1244;54.326;10.074;2023-03-21T15:56:42;9.60;99.90
2465;DHT22;1244;54.326;10.074;2023-03-21T15:59:13;9.70;99.90
2465;DHT22;1244;54.326;10.074;2023-03-21T16:01:47;9.80;99.90
2465;DHT22;1244;54.326;10.074;2023-03-21T16:04:14;9.80;99.90
2465;DHT22;1244;54.326;10.074;2023-03-21T16:06:58;9.70;99.90
2465;DHT22;1244;54.326;10.074;2023-03-21T16:09:24;9.50;99.90
2465;DHT22;1244;54.326;10.074;2023-03-21T16:14:17;9.70;99.90
2465;DHT22;1244;54.326;10.074;2023-03-21T16:16:44;9.60;99.90
2465;DHT22;1244;54.326;10.074;2023-03-21T16:19:10;9.50;99.90
2465;DHT22;1244;54.326;10.074;2023-03-21T16:21:36;9.50;99.90
2465;DHT22;1244;54.326;10.074;2023-03-21T16:24:05;9.50;99.90
2465;DHT22;1244;54.326;10.074;2023-03-21T16:26:43;9.50;99.90
2465;DHT22;1244;54.326;10.074;2023-03-21T16:29:15;9.60;99.90
2465;DHT22;1244;54.326;10.074;2023-03-21T16:31:42;9.40;99.90
2465;DHT22;1244;54.326;10.074;2023-03-21T16:34:07;9.60;99.90
2465;DHT22;1244;54.326;10.074;2023-03-21T16:36:38;9.50;99.90
2465;DHT22;1244;54.326;10.074;2023-03-21T16:39:16;9.60;99.90
2465;DHT22;1244;54.326;10.074;2023-03-21T16:41:42;9.50;99.90
2465;DHT22;1244;54.326;10.074;2023-03-21T16:44:08;9.50;99.90
2465;DHT22;1244;54.326;10.074;2023-03-21T16:46:33;9.50;99.90
2465;DHT22;1244;54.326;10.074;2023-03-21T16:48:59;9.50;99.90
2465;DHT22;1244;54.326;10.074;2023-03-21T16:51:33;9.50;99.90
2465;DHT22;1244;54.326;10.074;2023-03-21T16:53:59;9.50;99.90
2465;DHT22;1244;54.326;10.074;2023-03-21T16:56:36;9.40;99.90
2465;DHT22;1244;54.326;10.074;2023-03-21T16:59:03;9.40;99.90
2465;DHT22;1244;54.326;10.074;2023-03-21T17:01:30;9.40;99.90
2465;DHT22;1244;54.326;10.074;2023-03-21T17:03:56;9.40;99.90
2465;DHT22;1244;54.326;10.074;2023-03-21T17:06:27;9.40;99.90
2465;DHT22;1244;54.326;10.074;2023-03-21T17:08:54;9.40;99.90
2465;DHT22;1244;54.326;10.074;2023-03-21T17:11:22;9.40;99.90
2465;DHT22;1244;54.326;10.074;2023-03-21T17:13:49;9.40;99.90
2465;DHT22;1244;54.326;10.074;2023-03-21T17:16:18;9.40;99.90
2465;DHT22;1244;54.326;10.074;2023-03-21T17:18:44;9.30;99.90
2465;DHT22;1244;54.326;10.074;2023-03-21T17:21:16;9.30;99.90
2465;DHT22;1244;54.326;10.074;2023-03-21T17:23:42;9.20;99.90
2465;DHT22;1244;54.326;10.074;2023-03-21T17:26:09;9.30;99.90
2465;DHT22;1244;54.326;10.074;2023-03-21T17:28:37;9.30;99.90
2465;DHT22;1244;54.326;10.074;2023-03-21T17:31:03;9.20;99.90
2465;DHT22;1244;54.326;10.074;2023-03-21T17:33:30;9.20;99.90
2465;DHT22;1244;54.326;10.074;2023-03-21T17:35:56;9.20;99.90
2465;DHT22;1244;54.326;10.074;2023-03-21T17:38:21;9.20;99.90
2465;DHT22;1244;54.326;10.074;2023-03-21T17:40:47;9.20;99.90
2465;DHT22;1244;54.326;10.074;2023-03-21T17:43:15;9.10;99.90
2465;DHT22;1244;54.326;10.074;2023-03-21T17:45:41;9.10;99.90
2465;DHT22;1244;54.326;10.074;2023-03-21T17:48:07;9.10;99.90
2465;DHT22;1244;54.326;10.074;2023-03-21T17:50:33;9.20;99.90
2465;DHT22;1244;54.326;10.074;2023-03-21T17:53:01;9.20;99.90
2465;DHT22;1244;54.326;10.074;2023-03-21T17:55:28;9.20;99.90
2465;DHT22;1244;54.326;10.074;2023-03-21T17:57:53;9.20;99.90
2465;DHT22;1244;54.326;10.074;2023-03-21T18:00:22;9.20;99.90
2465;DHT22;1244;54.326;10.074;2023-03-21T18:02:48;9.10;99.90